ELLX/LUX METAR and TAF weather

Enter ICAO airport designator
Station Type Date Time Source
ELLX METAR 2020/04/05 12:20 UTC NOAA

ELLX 051220Z 14010KT 120V180 CAVOK 17/01 Q1020 NOSIG


Station Type Date Time Source
ELLX Decoded METAR 2020/04/05 12:20 UTC NOAA

Luxembourg / Luxembourg, Luxembourg (ELLX) 49-37N 006-13E 379M
Apr 05, 2020 - 08:20 AM EDT / 2020.04.05 1220 UTC
Wind: from the SE (140 degrees) at 12 MPH (10 KT) (direction variable):0
Visibility: greater than 7 mile(s):0
Temperature: 62 F (17 C)
Dew Point: 33 F (1 C)
Relative Humidity: 33%
Pressure (altimeter): 30.12 in. Hg (1020 hPa)
ob: ELLX 051220Z 14010KT 120V180 CAVOK 17/01 Q1020 NOSIG
cycle: 12

Station Type Date Time Source
ELLX TAF 2020/04/05 12:27 UTC NOAA

TAF ELLX 051100Z 0512/0618 13009KT CAVOK
BECMG 0608/0610 22008KT

Example: see airport list